Latest Coastal Weather Observations for Samuel Hill

IDQ60701

Issued at 9:21 am EST Monday 15 February 2016 (issued every 10 minutes, with the page automatically refreshed every 10 minutes)

About coastal observations | Map of coastal stations | Coastal observations for QLD | Marine services | Other Formats
Station Details ID: 033308 Name: SAMUEL HILL AERO Lat: -22.74 Lon: 150.66 Height: 31.0 m
Data from the previous 72 hours. | See also: Recent months at Samuel Hill
Date/Time
EST
Temp

°C
Wind Pressure Rain
since 9am
mm
Weather Cloud Vis
km
Sea
Height
m
Swell
Dir
 
Speed
knots
Gust
knots
hPa Trend Height
m
Period
s
Dir
15/09:00am 28.9 SSE 6 8 1009.3 - 0.0 - Mostly clear 10 - - - -
15/08:30am 27.8 ESE 6 8 1009.3 - 0.0 - Partly cloudy 10 - - - -
15/08:00am 26.4 SSE 4 6 1009.1 - 0.0 - - 10 - - - -
15/07:30am 24.6 CALM 0 0 1008.9 - 0.0 - - 10 - - - -
15/07:00am 23.4 CALM 0 0 1008.7 - 0.0 - Partly cloudy 10 - - - -
15/06:30am 21.3 CALM 0 0 1008.4 - 0.0 - - 10 - - - -
15/06:00am 20.5 CALM 0 0 1008.1 - 0.0 - - 10 - - - -
15/05:34am 20.2 CALM 0 0 1007.8 - 0.0 - - 10 - - - -
15/05:30am 20.2 CALM 0 0 1007.8 - 0.0 - - 10 - - - -
15/05:00am 20.4 CALM 0 0 1007.5 - 0.0 - - 1 - - - -
15/04:54am 20.4 CALM 0 0 1007.4 - 0.0 - Partly cloudy 6 - - - -
15/04:30am 21.0 CALM 0 0 1007.3 - 0.0 - Partly cloudy 10 - - - -
15/04:00am 21.2 CALM 0 0 1007.3 - 0.0 - Partly cloudy 10 - - - -
15/03:30am 20.6 CALM 0 0 1007.4 - 0.0 - - 10 - - - -
15/03:00am 20.9 CALM 0 0 1007.2 - 0.0 - - 10 - - - -
15/02:30am 21.1 CALM 0 0 1007.2 - 0.0 - - 10 - - - -
15/02:00am 21.3 CALM 0 0 1007.4 - 0.0 - - 10 - - - -
15/01:30am 21.4 CALM 0 0 1007.4 - 0.0 - - 10 - - - -
15/01:00am 21.7 CALM 0 0 1007.8 - 0.0 - - 10 - - - -
15/12:30am 22.0 CALM 0 0 1008.4 - 0.0 - - 10 - - - -
15/12:00am 22.1 CALM 0 0 1008.8 - 0.0 - - 10 - - - -
 
Date/Time
EST
Temp

°C
Wind Pressure Rain
since 9am
mm
Weather Cloud Vis
km
Sea
Height
m
Swell
Dir
 
Speed
knots
Gust
knots
hPa Trend Height
m
Period
s
Dir
14/11:30pm 22.5 CALM 0 0 1009.0 - 0.0 - - 10 - - - -
14/11:00pm 22.5 S 3 4 1009.0 - 0.0 - - 10 - - - -
14/10:30pm 23.0 CALM 0 0 1009.1 - 0.0 - - 10 - - - -
14/10:00pm 23.1 CALM 0 0 1009.1 - 0.0 - - 10 - - - -
14/09:30pm 24.2 S 3 5 1008.9 - 0.0 - - 10 - - - -
14/09:00pm 24.3 SSE 4 5 1008.7 - 0.0 - - 10 - - - -
14/08:30pm 24.7 SSE 4 5 1008.5 - 0.0 - - 10 - - - -
14/08:00pm 24.9 SSE 4 5 1008.3 - 0.0 - - 10 - - - -
14/07:30pm 25.3 SE 5 6 1007.8 - 0.0 - - 10 - - - -
14/07:00pm 25.8 SE 5 7 1007.2 - 0.0 - - 10 - - - -
14/06:30pm 26.5 ESE 7 10 1006.7 - 0.0 - - 10 - - - -
14/06:00pm 27.4 ESE 10 13 1006.3 - 0.0 - - 10 - - - -
14/05:30pm 28.3 ESE 8 12 1005.8 - 0.0 - - 10 - - - -
14/05:00pm 29.0 SE 9 14 1005.5 - 0.0 - - 10 - - - -
14/04:30pm 29.5 ESE 10 14 1005.3 - 0.0 - - 10 - - - -
14/04:00pm 29.4 ESE 11 16 1005.4 - 0.0 - - 10 - - - -
14/03:30pm 29.8 ESE 11 16 1005.6 - 0.0 - - 10 - - - -
14/03:00pm 29.7 ESE 11 15 1005.6 - 0.0 - - 10 - - - -
14/02:30pm 29.6 ESE 12 16 1005.8 - 0.0 - - 10 - - - -
14/02:00pm 30.0 ESE 10 15 1005.9 - 0.0 - - 10 - - - -
14/01:30pm 30.3 ESE 10 15 1006.1 - 0.0 - - 10 - - - -
14/01:00pm 30.2 SE 9 13 1006.2 - 0.0 - - 10 - - - -
14/12:30pm 29.6 SSE 9 15 1006.4 - 0.0 - - 10 - - - -
14/12:00pm 29.4 SE 10 17 1006.7 - 0.0 - - 10 - - - -
14/11:30am 29.5 ESE 11 17 1006.9 - 0.0 - - 10 - - - -
14/11:00am 29.1 SE 11 18 1007.0 - 0.0 - - 10 - - - -
14/10:30am 29.1 SE 9 13 1007.3 - 0.0 - Partly cloudy 10 - - - -
14/10:00am 28.4 SSE 8 13 1007.6 - 0.0 - Partly cloudy 10 - - - -
14/09:30am 28.0 SSE 8 12 1007.9 - 0.0 - - 10 - - - -
14/09:00am 27.2 S 7 11 1007.9 - 0.0 - - 10 - - - -
14/08:30am 26.5 S 9 14 1008.0 - 0.0 - - 10 - - - -
14/08:00am 26.2 S 7 10 1007.9 - 0.0 - - 10 - - - -
14/07:30am 25.7 S 6 9 1007.8 - 0.0 - - 10 - - - -
14/07:00am 24.4 SSW 4 6 1007.7 - 0.0 - - 10 - - - -
14/06:30am 22.5 W 4 5 1007.5 - 0.0 - - 10 - - - -
14/06:00am 21.0 SSW 2 4 1007.3 - 0.0 - - 10 - - - -
14/05:30am 21.9 S 4 5 1007.0 - 0.0 - - 10 - - - -
14/05:00am 22.1 SSE 4 5 1006.4 - 0.0 - - 10 - - - -
14/04:30am 22.4 SSE 5 8 1006.1 - 0.0 - - 10 - - - -
14/04:00am 22.6 S 4 5 1006.2 - 0.0 - - 10 - - - -
14/03:30am 23.1 S 5 7 1006.3 - 0.0 - Partly cloudy 10 - - - -
14/03:00am 23.6 S 5 7 1006.5 - 0.0 - Mostly cloudy 10 - - - -
14/02:30am 23.6 SSW 5 6 1006.4 - 0.0 - Cloudy 10 - - - -
14/02:00am 23.7 SSW 5 7 1006.6 - 0.0 - Cloudy 10 - - - -
14/01:30am 23.8 S 5 7 1007.0 - 0.0 - Partly cloudy 10 - - - -
14/01:00am 24.0 SSE 7 10 1007.4 - 0.0 - Partly cloudy 10 - - - -
14/12:30am 23.8 SSE 4 7 1007.9 - 0.0 - Partly cloudy 10 - - - -
14/12:00am 24.1 SE 5 7 1008.1 - 0.0 - Partly cloudy 10 - - - -
 
Date/Time
EST
Temp

°C
Wind Pressure Rain
since 9am
mm
Weather Cloud Vis
km
Sea
Height
m
Swell
Dir
 
Speed
knots
Gust
knots
hPa Trend Height
m
Period
s
Dir
13/11:30pm 24.5 SE 9 13 1008.3 - 0.0 - - 10 - - - -
13/11:00pm 25.0 SE 10 15 1008.4 - 0.0 - Partly cloudy 10 - - - -
13/10:30pm 24.9 SE 9 14 1008.4 - 0.0 - - 10 - - - -
13/10:00pm 24.5 SSE 5 7 1008.4 - 0.0 - Partly cloudy 10 - - - -
13/09:30pm 24.4 SSE 6 8 1008.3 - 0.0 - Partly cloudy 10 - - - -
13/09:00pm 24.6 SE 6 11 1008.2 - 0.0 Rain Partly cloudy 10 - - - -
13/08:30pm 24.9 SE 8 12 1008.1 - 0.0 - Partly cloudy 10 - - - -
13/08:00pm 24.7 SE 5 8 1007.9 - 0.0 - Partly cloudy 10 - - - -
13/07:30pm 24.8 SE 8 12 1007.6 - 0.0 - - 10 - - - -
13/07:00pm 26.2 ESE 7 12 1007.0 - 0.0 - - 10 - - - -
13/06:30pm 26.5 ESE 8 13 1006.6 - 0.0 - - 10 - - - -
13/06:00pm 26.9 SE 7 11 1006.3 - 0.0 - - 10 - - - -
13/05:30pm 28.2 ESE 7 11 1005.8 - 0.0 - - 10 - - - -
13/05:00pm 29.2 SE 7 12 1005.5 - 0.0 - - 10 - - - -
13/04:30pm 29.1 ESE 9 15 1005.2 - 0.0 - - 10 - - - -
13/04:00pm 30.0 ESE 9 15 1005.2 - 0.0 - Partly cloudy 10 - - - -
13/03:30pm 30.3 ESE 9 14 1005.4 - 0.0 - Partly cloudy 10 - - - -
13/03:00pm 30.6 ESE 9 13 1005.7 - 0.0 - Partly cloudy 10 - - - -
13/02:30pm 29.1 ESE 8 13 1006.0 - 0.0 - Partly cloudy 10 - - - -
13/02:00pm 29.9 SE 11 17 1006.2 - 0.0 - Partly cloudy 10 - - - -
13/01:30pm 29.7 SSE 12 19 1006.5 - 0.0 - Partly cloudy 10 - - - -
13/01:00pm 29.8 SE 13 20 1007.0 - 0.0 - Partly cloudy 10 - - - -
13/12:44pm 29.1 SE 15 27 1007.2 - 0.0 - Partly cloudy 10 - - - -
13/12:30pm 29.3 SSE 14 23 1007.3 - 0.0 - Partly cloudy 10 - - - -
13/12:00pm 28.6 SSE 13 21 1007.9 - 0.0 - Cloudy 10 - - - -
13/11:30am 28.2 SSE 13 19 1008.2 - 0.0 - Partly cloudy 10 - - - -
13/11:00am 26.8 SSE 11 16 1008.6 - 0.0 - Partly cloudy 10 - - - -
13/10:30am 27.1 SSE 11 18 1008.8 - 0.0 - Cloudy 10 - - - -
13/10:00am 26.2 SSE 11 16 1008.9 - 0.0 - Cloudy 10 - - - -
13/09:30am 25.8 SSE 10 15 1009.2 - 0.0 - Cloudy 10 - - - -
13/09:00am 25.5 SSE 9 15 1009.1 - 0.0 - Mostly cloudy 10 - - - -
13/08:30am 25.1 SSE 8 12 1009.0 - 0.0 - Partly cloudy 10 - - - -
13/08:00am 24.5 SSE 9 14 1008.9 - 0.0 - Partly cloudy 10 - - - -
13/07:30am 24.7 S 9 14 1008.8 - 0.0 - - 10 - - - -
13/07:00am 23.8 S 8 11 1008.5 - 0.0 - - 10 - - - -
13/06:30am 22.8 S 7 10 1008.1 - 0.0 - - 10 - - - -
13/06:00am 22.0 S 7 9 1007.8 - 0.0 - - 10 - - - -
13/05:30am 22.3 SSE 8 11 1007.6 - 0.0 - - 10 - - - -
13/05:00am 22.2 SSE 7 10 1007.4 - 0.0 - - 10 - - - -
13/04:30am 22.2 S 6 8 1007.4 - 0.0 - - 10 - - - -
13/04:00am 22.6 S 6 9 1007.1 - 0.0 - - 10 - - - -
13/03:30am 22.8 S 5 7 1007.1 - 0.0 - - 10 - - - -
13/03:00am 23.2 S 5 9 1007.4 - 0.0 - - 10 - - - -
13/02:30am 23.6 SSE 6 8 1007.4 - 0.0 - - 10 - - - -
13/02:00am 24.3 SE 7 11 1007.7 - 0.0 - - 10 - - - -
13/01:30am 24.6 SSE 9 13 1008.0 - 0.0 - - 10 - - - -
13/01:00am 25.0 SSE 9 15 1008.3 - 0.0 - Partly cloudy 10 - - - -
13/12:30am 25.3 SE 10 15 1008.7 - 0.0 - Partly cloudy 10 - - - -
13/12:00am 25.4 SE 9 15 1009.0 - 0.0 - Mostly clear 10 - - - -
 
Date/Time
EST
Temp

°C
Wind Pressure Rain
since 9am
mm
Weather Cloud Vis
km
Sea
Height
m
Swell
Dir
 
Speed
knots
Gust
knots
hPa Trend Height
m
Period
s
Dir
12/11:30pm 25.6 SE 10 15 1009.4 - 0.0 - Partly cloudy 10 - - - -
12/11:00pm 25.7 ESE 10 16 1009.6 - 0.0 - Partly cloudy 10 - - - -
12/10:30pm 25.9 SE 10 15 1009.8 - 0.0 - Partly cloudy 10 - - - -
12/10:00pm 25.9 SE 8 14 1009.8 - 0.0 - Partly cloudy 10 - - - -
12/09:30pm 25.7 SE 8 13 1009.9 - 0.0 - Partly cloudy 10 - - - -
12/09:00pm 25.9 SE 7 10 1009.9 - 0.0 - Cloudy 10 - - - -
12/08:30pm 25.6 SE 7 11 1009.7 - 0.0 - Partly cloudy 10 - - - -
12/08:00pm 25.7 SE 6 10 1009.5 - 0.0 - Partly cloudy 10 - - - -
12/07:30pm 25.7 SE 6 11 1009.2 - 0.0 - Partly cloudy 10 - - - -
12/07:00pm 26.1 SE 8 13 1008.9 - 0.0 - - 10 - - - -
12/06:30pm 26.5 SE 9 14 1008.4 - 0.0 - - 10 - - - -
12/06:00pm 27.3 SE 8 15 1008.3 - 0.0 - - 10 - - - -
12/05:30pm 28.0 SE 9 16 1008.2 - 0.0 - - 10 - - - -
12/05:00pm 28.5 SE 11 17 1007.9 - 0.0 - - 10 - - - -
12/04:30pm 28.7 SE 11 18 1007.9 - 0.0 - - 10 - - - -
12/04:00pm 28.8 ESE 13 19 1007.8 - 0.0 - - 10 - - - -
12/03:30pm 29.3 SE 12 17 1007.8 - 0.0 - Partly cloudy 10 - - - -
12/03:00pm 29.8 SSE 12 19 1007.8 - 0.0 - Partly cloudy 10 - - - -
12/02:30pm 29.5 SE 12 22 1007.8 - 0.0 - Partly cloudy 10 - - - -
12/02:00pm 29.5 SE 11 16 1008.1 - 0.0 - Partly cloudy 10 - - - -
12/01:30pm 28.6 SE 12 20 1008.4 - 0.0 - Partly cloudy 10 - - - -
12/01:00pm 28.9 SSE 13 19 1008.6 - 0.0 - Partly cloudy 10 - - - -
12/12:30pm 29.2 SSE 12 17 1008.9 - 0.0 - Partly cloudy 10 - - - -
12/12:00pm 28.0 SE 12 22 1009.4 - 0.0 - Partly cloudy 10 - - - -
12/11:30am 28.5 SSE 13 19 1009.6 - 0.0 - Partly cloudy 10 - - - -
12/11:00am 28.7 SE 11 17 1009.8 - 0.0 - Partly cloudy 10 - - - -
12/10:30am 26.8 SSE 10 17 1010.1 - 0.0 - Partly cloudy 10 - - - -
12/10:00am 26.9 SSE 13 20 1010.5 - 0.0 - Partly cloudy 10 - - - -
12/09:30am 26.8 SSE 11 17 1010.7 - 0.0 - Partly cloudy 10 - - - -

Other Formats:

Comma delimited format used in spreadsheet applications
http://www.bom.gov.au/fwo/IDQ60701/IDQ60701.94370.axf

JavaScript Object Notation format (JSON) in row-major order
http://www.bom.gov.au/fwo/IDQ60701/IDQ60701.94370.json